Terminal Aerodrome Forecast
Issued by NWS Greer, SC

Home | Current Version | Previous Version | Text Only | Print | Product List | Glossary On
Versions: 1 2 3 4 5 6 7 8 9 10 11 12 13 14 15 16 17
274
FTUS42 KGSP 051728
TAFGSP
TAF
KGSP 051728Z 0518/0618 33010G18KT P6SM VCSH BKN070
     FM060000 32007KT P6SM VCSH BKN080 PROB30 0603/0607 5SM -SHRA
      OVC050
     FM061300 33008G15KT P6SM FEW050 BKN080=

USA.gov is the U.S. government's official web portal to all federal, state and local government web resources and services.